New Harmony, Ohio
Current Conditions -  °F | °C
As of 3:53 PM on Saturday 22 Nov 2014 (Local Time) from KLUK Reporting Station
Broken Clouds Broken Clouds  
Wind Chill: 59°   Ceiling: 11000
Heat Index: 59°   Visibility: 10mi
Dew Point: 37°   Wind: 14mph
Humidity: 44%   Direction: 200°SSW
Pressure: 30.13"   Gusts: NA
Location:  39.088°N, 84.0217°W
Report Text: KLUK 222053Z 20012KT 10SM BKN110 15/03 A3013 RMK AO2 SLP203 T01500028 56021
Loading
Personal Weather Stations






























Interactive Weather Map New forecast layout! Learn more

10-Day Weather Forecast

Advertisements
Track Severe Weather on mobile